Weather at Panguilemo Airport

Public forecast

Using degrees Celsius for public forecast. Weather courtesy of forecast.io.

Closest aviation weather report (METAR) to Panguilemo Airport

Closest report is General Freire Airport, 31.1 nm (57.6 km) NE. Retrieved 2021/04/11 06:00 UTC (31 minutes ago):

SCIC 110600Z AUTO 17004KT 140V210 9999 NCD 08/05 Q1020

Closest aviation forecast (TAF) to Panguilemo Airport

Closest forecast is Carriel Sur Airport, 109.7 nm (203.2 km) SW. Retrieved 2021/04/11 06:00 UTC (31 minutes ago):

TAF SCIE 110405Z 1106/1206 19007KT CAVOK TX20/1118Z TN08/1111Z TEMPO 1106/1112 15005KT BECMG 1114/1116 22010KT BECMG 1118/1120 24015KT BECMG 1201/1203 20008KT